Time;durP1;ratioP1;P1;durP2;ratioP2;P2;SDS_P1;SDS_P2;PMS_P1;PMS_P2;Temp;Humidity;BMP_temperature;BMP_pressure;BME280_temperature;BME280_humidity;BME280_pressure;Samples;Min_cycle;Max_cycle;Signal;HPM_P1;HPM_P2
2021/07/11 00:00:08;;;;;;;9.38;4.43;;;18.70;99.90;;;;;;5079404;28;20028;-71
2021/07/11 00:02:34;;;;;;;7.90;4.30;;;18.60;99.90;;;;;;5080836;28;20452;-71
2021/07/11 00:05:01;;;;;;;9.07;4.38;;;18.50;99.90;;;;;;5079727;28;20056;-71
2021/07/11 00:07:29;;;;;;;8.95;4.50;;;18.50;99.90;;;;;;5086837;28;20032;-71
2021/07/11 00:09:56;;;;;;;9.07;5.00;;;18.50;99.90;;;;;;5082407;28;20480;-72
2021/07/11 00:12:21;;;;;;;7.47;3.83;;;18.50;99.90;;;;;;5082520;28;20032;-71
2021/07/11 00:14:47;;;;;;;11.02;4.80;;;18.40;99.90;;;;;;5074485;28;20043;-71
2021/07/11 00:17:13;;;;;;;11.23;4.47;;;18.40;99.90;;;;;;5061550;28;20117;-71
2021/07/11 00:19:38;;;;;;;6.70;4.15;;;18.40;99.90;;;;;;5062641;28;20067;-71
2021/07/11 00:22:04;;;;;;;7.88;4.20;;;18.50;99.90;;;;;;5060137;28;20037;-71
2021/07/11 00:24:29;;;;;;;7.93;4.32;;;18.50;99.90;;;;;;5062971;28;20046;-72
2021/07/11 00:26:55;;;;;;;13.35;4.82;;;18.50;99.90;;;;;;5078782;28;20500;-71
2021/07/11 00:29:21;;;;;;;7.82;4.15;;;18.50;99.90;;;;;;5078095;28;20480;-70
2021/07/11 00:31:46;;;;;;;6.50;3.70;;;18.50;99.90;;;;;;5074577;28;20032;-71
2021/07/11 00:34:13;;;;;;;7.70;4.60;;;18.50;99.90;;;;;;5082952;28;20024;-70
2021/07/11 00:36:39;;;;;;;9.93;4.45;;;18.50;99.90;;;;;;5078071;28;20108;-69
2021/07/11 00:39:05;;;;;;;9.15;4.53;;;18.50;99.90;;;;;;5078404;28;20040;-70
2021/07/11 00:41:30;;;;;;;7.60;4.03;;;18.50;99.90;;;;;;5060653;28;20080;-70
2021/07/11 00:43:56;;;;;;;15.20;4.82;;;18.50;99.90;;;;;;5076519;28;20040;-71
2021/07/11 00:46:22;;;;;;;7.57;4.22;;;18.50;99.90;;;;;;5059534;28;20052;-70
2021/07/11 00:48:48;;;;;;;7.70;4.40;;;18.50;99.90;;;;;;5063245;28;20040;-70
2021/07/11 00:51:13;;;;;;;7.25;4.50;;;18.50;99.90;;;;;;5078059;28;20089;-71
2021/07/11 00:53:51;;;;;;;8.70;4.47;;;18.60;99.90;;;;;;5078652;28;20569;-70
2021/07/11 00:56:17;;;;;;;9.10;4.25;;;18.60;99.90;;;;;;5074331;28;20119;-71
2021/07/11 00:58:43;;;;;;;9.45;4.05;;;18.60;99.90;;;;;;5080624;28;20610;-70
2021/07/11 01:01:12;;;;;;;7.10;4.32;;;18.60;99.90;;;;;;5078884;28;20029;-70
2021/07/11 01:03:40;;;;;;;8.98;4.10;;;18.60;99.90;;;;;;5081194;28;20033;-69
2021/07/11 01:06:07;;;;;;;6.07;3.15;;;18.60;99.90;;;;;;5078600;28;20032;-72
2021/07/11 01:08:56;;;;;;;7.80;4.13;;;18.60;99.90;;;;;;5061216;28;20114;-70
2021/07/11 01:11:26;;;;;;;8.85;4.93;;;18.60;99.90;;;;;;5057480;28;20040;-70
2021/07/11 01:13:56;;;;;;;10.35;4.35;;;18.60;99.90;;;;;;5080821;28;20028;-70
2021/07/11 01:16:27;;;;;;;7.60;3.95;;;18.60;99.90;;;;;;5059886;28;20039;-70
2021/07/11 01:18:58;;;;;;;7.45;4.25;;;18.60;99.90;;;;;;5080594;28;20035;-71
2021/07/11 01:21:26;;;;;;;9.93;4.95;;;18.60;99.90;;;;;;5081795;28;20029;-70
2021/07/11 01:24:10;;;;;;;9.15;4.60;;;18.70;99.90;;;;;;5078613;28;20032;-69
2021/07/11 01:26:37;;;;;;;8.18;4.55;;;18.60;99.90;;;;;;5078455;28;20089;-70
2021/07/11 01:29:04;;;;;;;9.38;4.60;;;18.60;99.90;;;;;;5079885;28;20032;-73
2021/07/11 01:31:31;;;;;;;9.60;5.22;;;18.60;99.90;;;;;;5064909;28;20504;-72
2021/07/11 01:33:58;;;;;;;12.40;4.70;;;18.60;99.90;;;;;;5078875;28;20036;-71
2021/07/11 01:36:25;;;;;;;10.35;4.43;;;18.50;99.90;;;;;;5079542;28;20853;-71
2021/07/11 01:38:52;;;;;;;8.95;4.85;;;18.50;99.90;;;;;;5059359;28;20039;-71
2021/07/11 01:41:19;;;;;;;8.07;4.93;;;18.50;99.90;;;;;;5059072;28;20044;-71
2021/07/11 01:43:47;;;;;;;9.00;4.90;;;18.50;99.90;;;;;;5080821;28;20040;-70
2021/07/11 01:46:13;;;;;;;9.25;4.68;;;18.50;99.90;;;;;;5072403;28;20043;-71
2021/07/11 01:48:39;;;;;;;6.63;4.13;;;18.50;99.90;;;;;;5044613;28;20039;-71
2021/07/11 01:51:05;;;;;;;8.13;4.38;;;18.50;99.90;;;;;;5078400;28;20103;-71
2021/07/11 01:53:37;;;;;;;10.50;5.00;;;18.50;99.90;;;;;;5079044;28;20036;-71
2021/07/11 01:56:06;;;;;;;10.27;4.85;;;18.50;99.90;;;;;;5060081;28;20036;-71
2021/07/11 01:58:32;;;;;;;10.02;4.97;;;18.50;99.90;;;;;;5080898;28;20036;-71
2021/07/11 02:01:00;;;;;;;8.32;4.70;;;18.50;99.90;;;;;;5077366;28;20070;-71
2021/07/11 02:03:26;;;;;;;8.32;4.90;;;18.50;99.90;;;;;;5079551;28;20119;-71
2021/07/11 02:05:54;;;;;;;10.48;4.95;;;18.50;99.90;;;;;;5068244;28;20032;-71
2021/07/11 02:08:20;;;;;;;9.25;4.57;;;18.50;99.90;;;;;;5084260;28;20496;-71
2021/07/11 02:10:48;;;;;;;7.38;4.75;;;18.50;99.90;;;;;;5069327;28;20507;-71
2021/07/11 02:13:23;;;;;;;11.05;5.70;;;18.50;99.90;;;;;;5083808;28;20033;-71
2021/07/11 02:15:50;;;;;;;7.93;4.63;;;18.50;99.90;;;;;;5080815;28;20033;-72
2021/07/11 02:18:24;;;;;;;10.40;4.78;;;18.50;99.90;;;;;;5087148;28;20063;-72
2021/07/11 02:20:51;;;;;;;9.38;5.28;;;18.40;99.90;;;;;;5084268;28;20046;-71
2021/07/11 02:23:23;;;;;;;6.90;4.18;;;18.40;99.90;;;;;;5087006;28;20088;-71
2021/07/11 02:25:49;;;;;;;11.48;4.85;;;18.40;99.90;;;;;;5083133;28;20028;-72
2021/07/11 02:28:17;;;;;;;8.40;4.80;;;18.40;99.90;;;;;;5087102;28;20035;-72
2021/07/11 02:30:54;;;;;;;9.23;4.85;;;18.40;99.90;;;;;;5065142;28;20393;-72
2021/07/11 02:33:27;;;;;;;9.43;5.10;;;18.40;99.90;;;;;;5081883;28;20039;-72
2021/07/11 02:35:54;;;;;;;10.15;4.82;;;18.40;99.90;;;;;;5084207;28;20028;-72
2021/07/11 02:38:20;;;;;;;7.53;4.20;;;18.40;99.90;;;;;;5084655;28;20028;-71
2021/07/11 02:40:47;;;;;;;11.65;4.43;;;18.40;99.90;;;;;;5083552;28;20036;-71
2021/07/11 02:43:15;;;;;;;11.25;4.95;;;18.40;99.90;;;;;;5083724;28;20154;-72
2021/07/11 02:45:43;;;;;;;8.85;4.50;;;18.40;99.90;;;;;;5082783;28;20036;-71
2021/07/11 02:48:10;;;;;;;8.73;4.20;;;18.40;99.90;;;;;;5078833;28;20043;-71
2021/07/11 02:50:37;;;;;;;9.27;4.43;;;18.40;99.90;;;;;;5082813;28;20060;-71
2021/07/11 02:53:04;;;;;;;11.07;4.43;;;18.40;99.90;;;;;;5068279;28;20155;-72
2021/07/11 02:55:35;;;;;;;10.40;4.65;;;18.40;99.90;;;;;;5084126;28;20123;-72
2021/07/11 02:58:07;;;;;;;9.30;4.10;;;18.40;99.90;;;;;;5085829;28;20032;-71
2021/07/11 03:00:33;;;;;;;8.98;4.47;;;18.40;99.90;;;;;;5082802;28;20047;-71
2021/07/11 03:03:00;;;;;;;6.97;4.00;;;18.40;99.90;;;;;;5084052;28;20028;-71
2021/07/11 03:05:27;;;;;;;8.60;4.72;;;18.40;99.90;;;;;;5085021;28;20055;-72
2021/07/11 03:07:53;;;;;;;10.32;5.10;;;18.40;99.90;;;;;;5068435;28;20032;-71
2021/07/11 03:10:19;;;;;;;10.02;6.13;;;18.40;99.90;;;;;;5085728;28;20020;-71
2021/07/11 03:12:49;;;;;;;12.65;6.93;;;18.40;99.90;;;;;;5083013;28;20056;-71
2021/07/11 03:15:15;;;;;;;13.82;7.18;;;18.30;99.90;;;;;;5076898;28;20031;-71
2021/07/11 03:17:42;;;;;;;15.32;7.88;;;18.30;99.90;;;;;;5079130;28;20033;-71
2021/07/11 03:20:09;;;;;;;15.10;7.85;;;18.30;99.90;;;;;;5067856;28;20563;-71
2021/07/11 03:22:37;;;;;;;14.15;7.90;;;18.20;99.90;;;;;;5065147;28;20052;-71
2021/07/11 03:25:10;;;;;;;16.63;8.68;;;18.20;99.90;;;;;;5066058;28;20029;-70
2021/07/11 03:27:37;;;;;;;13.32;7.55;;;18.20;99.90;;;;;;5057413;28;20054;-72
2021/07/11 03:30:06;;;;;;;18.27;9.02;;;18.20;99.90;;;;;;5079648;28;20439;-71
2021/07/11 03:32:37;;;;;;;15.60;8.27;;;18.20;99.90;;;;;;5082636;28;20107;-71
2021/07/11 03:35:04;;;;;;;;;;;18.20;99.90;;;;;;5080055;28;20047;-71
2021/07/11 03:37:34;;;;;;;17.08;9.20;;;18.10;99.90;;;;;;5064268;28;19916;-71
2021/07/11 03:40:00;;;;;;;16.63;9.13;;;18.10;99.90;;;;;;5074276;28;20032;-72
2021/07/11 03:42:31;;;;;;;17.55;8.98;;;18.10;99.90;;;;;;5082647;28;20478;-71
2021/07/11 03:44:59;;;;;;;16.75;8.13;;;18.10;99.90;;;;;;5081296;28;20041;-71
2021/07/11 03:47:32;;;;;;;19.13;8.80;;;18.00;99.90;;;;;;5080956;28;20025;-72
2021/07/11 03:49:59;;;;;;;15.60;8.45;;;18.00;99.90;;;;;;5063557;28;20029;-72
2021/07/11 03:52:28;;;;;;;19.23;8.88;;;18.00;99.90;;;;;;5080681;28;20504;-71
2021/07/11 03:54:55;;;;;;;21.58;9.15;;;18.00;99.90;;;;;;5085029;28;20029;-72
2021/07/11 03:57:27;;;;;;;17.63;9.05;;;18.00;99.90;;;;;;5060269;28;20025;-72
2021/07/11 03:59:53;;;;;;;17.42;9.02;;;18.00;99.90;;;;;;5080227;28;20035;-71
2021/07/11 04:02:19;;;;;;;17.50;9.90;;;18.00;99.90;;;;;;5083273;28;20028;-72
2021/07/11 04:04:46;;;;;;;16.70;7.85;;;18.00;99.90;;;;;;5079238;28;20043;-71
2021/07/11 04:07:12;;;;;;;16.67;8.70;;;18.00;99.90;;;;;;5078684;28;20024;-71
2021/07/11 04:09:39;;;;;;;21.80;8.55;;;18.00;99.90;;;;;;5064474;28;20086;-71
2021/07/11 04:12:09;;;;;;;19.38;9.10;;;18.00;99.90;;;;;;5074423;28;20029;-71
2021/07/11 04:14:34;;;;;;;22.13;9.88;;;18.00;99.90;;;;;;5074455;28;20056;-72
2021/07/11 04:17:07;;;;;;;15.55;8.48;;;17.90;99.90;;;;;;5081941;28;20082;-71
2021/07/11 04:19:36;;;;;;;16.35;9.05;;;17.90;99.90;;;;;;5078924;28;20074;-72
2021/07/11 04:22:05;;;;;;;17.80;8.73;;;18.00;99.90;;;;;;5063584;28;20028;-71
2021/07/11 04:24:35;;;;;;;15.40;8.30;;;17.90;99.90;;;;;;5064266;28;20032;-72
2021/07/11 04:27:01;;;;;;;18.90;8.77;;;18.00;99.90;;;;;;5078084;28;20029;-71
2021/07/11 04:29:30;;;;;;;17.25;9.48;;;18.10;99.90;;;;;;5063331;28;20567;-71
2021/07/11 04:31:57;;;;;;;19.30;9.32;;;18.10;99.90;;;;;;5081779;28;20059;-71
2021/07/11 04:34:29;;;;;;;18.00;8.38;;;18.10;99.90;;;;;;5079860;28;20074;-71
2021/07/11 04:36:58;;;;;;;17.02;7.80;;;18.00;99.90;;;;;;5078972;28;20032;-73
2021/07/11 04:39:24;;;;;;;16.88;8.95;;;18.00;99.90;;;;;;5078794;28;20037;-71
2021/07/11 04:41:50;;;;;;;17.95;8.65;;;18.00;99.90;;;;;;5062287;28;20060;-71
2021/07/11 04:44:17;;;;;;;19.33;9.15;;;18.00;99.90;;;;;;5075339;28;20051;-71
2021/07/11 04:46:43;;;;;;;17.38;9.35;;;18.10;99.90;;;;;;5064177;28;20443;-72
2021/07/11 04:49:09;;;;;;;14.80;8.18;;;18.20;99.90;;;;;;5077197;28;20089;-71
2021/07/11 04:51:35;;;;;;;15.18;8.65;;;18.20;99.90;;;;;;5082628;28;20078;-72
2021/07/11 04:54:06;;;;;;;19.40;8.57;;;18.20;99.90;;;;;;5074002;28;20416;-72
2021/07/11 04:56:33;;;;;;;17.10;8.65;;;18.20;99.90;;;;;;5074246;28;20067;-71
2021/07/11 04:58:59;;;;;;;15.40;8.43;;;18.30;99.90;;;;;;5063199;28;20571;-73
2021/07/11 05:01:25;;;;;;;20.98;8.20;;;18.30;99.90;;;;;;5082126;28;20453;-72
2021/07/11 05:03:54;;;;;;;17.50;8.40;;;18.20;99.90;;;;;;5079442;28;20047;-71
2021/07/11 05:06:20;;;;;;;15.98;8.48;;;18.30;99.90;;;;;;5077492;28;20040;-71
2021/07/11 05:08:46;;;;;;;17.77;7.95;;;18.40;99.90;;;;;;5061906;28;20033;-72
2021/07/11 05:11:12;;;;;;;16.17;8.25;;;18.50;99.90;;;;;;5061942;28;20460;-72
2021/07/11 05:13:38;;;;;;;15.57;7.82;;;18.60;99.90;;;;;;5060728;28;20067;-72
2021/07/11 05:16:04;;;;;;;14.55;7.90;;;18.70;99.90;;;;;;5081487;28;20045;-72
2021/07/11 05:18:29;;;;;;;15.13;8.10;;;18.80;99.90;;;;;;5078198;28;20123;-71
2021/07/11 05:20:55;;;;;;;15.63;7.95;;;18.90;99.90;;;;;;5082575;28;20040;-72
2021/07/11 05:23:21;;;;;;;13.20;7.05;;;19.00;99.90;;;;;;5081713;28;20097;-72
2021/07/11 05:25:47;;;;;;;17.80;7.97;;;19.00;99.90;;;;;;5078090;28;20028;-72
2021/07/11 05:28:13;;;;;;;15.40;7.63;;;19.10;99.90;;;;;;5078218;28;20078;-72
2021/07/11 05:30:39;;;;;;;16.05;7.75;;;19.10;99.90;;;;;;5072837;28;20033;-72
2021/07/11 05:33:05;;;;;;;12.88;7.07;;;19.10;99.90;;;;;;5069007;28;20109;-72
2021/07/11 05:35:30;;;;;;;11.68;6.78;;;19.00;99.90;;;;;;5077178;28;20934;-71
2021/07/11 05:37:56;;;;;;;12.68;6.70;;;18.90;99.90;;;;;;5077027;28;20399;-74
2021/07/11 05:40:21;;;;;;;14.57;7.25;;;18.90;99.90;;;;;;5071716;28;20039;-71
2021/07/11 05:42:49;;;;;;;12.30;6.60;;;18.90;99.90;;;;;;5079858;28;20117;-72
2021/07/11 05:45:15;;;;;;;11.90;6.03;;;18.90;99.90;;;;;;5078722;28;20020;-69
2021/07/11 05:47:41;;;;;;;12.73;6.60;;;18.90;99.90;;;;;;5080638;28;20508;-71
2021/07/11 05:50:08;;;;;;;15.23;7.25;;;18.80;99.90;;;;;;5077738;28;20039;-71
2021/07/11 05:52:33;;;;;;;12.60;6.10;;;18.80;99.90;;;;;;5060193;28;20463;-71
2021/07/11 05:54:59;;;;;;;11.77;6.30;;;18.80;99.90;;;;;;5077668;28;20119;-70
2021/07/11 05:57:27;;;;;;;12.57;6.70;;;18.80;99.90;;;;;;5075914;28;20028;-71
2021/07/11 05:59:52;;;;;;;10.95;6.22;;;18.80;99.90;;;;;;5078366;28;20712;-71
2021/07/11 06:02:18;;;;;;;10.05;5.70;;;18.90;99.90;;;;;;5061359;28;20104;-72
2021/07/11 06:04:43;;;;;;;11.25;6.03;;;18.90;99.90;;;;;;5061611;28;20066;-71
2021/07/11 06:07:09;;;;;;;10.90;6.13;;;18.90;99.90;;;;;;5079319;28;20056;-72
2021/07/11 06:09:35;;;;;;;13.82;5.47;;;18.90;99.90;;;;;;5058528;28;20110;-72
2021/07/11 06:12:01;;;;;;;14.20;6.53;;;18.90;99.90;;;;;;5081828;28;20033;-72
2021/07/11 06:14:27;;;;;;;11.73;6.40;;;18.90;99.90;;;;;;5072709;28;20024;-71
2021/07/11 06:16:52;;;;;;;12.05;6.35;;;19.00;99.90;;;;;;5060440;28;20100;-71
2021/07/11 06:19:18;;;;;;;11.65;7.15;;;19.00;99.90;;;;;;5077218;28;20028;-72
2021/07/11 06:21:44;;;;;;;13.32;5.97;;;19.00;99.90;;;;;;5063852;28;20051;-72
2021/07/11 06:24:10;;;;;;;12.68;5.90;;;19.10;99.90;;;;;;5059827;28;20044;-72
2021/07/11 06:26:36;;;;;;;11.55;6.10;;;19.00;99.90;;;;;;5060394;28;20032;-70
2021/07/11 06:29:02;;;;;;;13.93;6.35;;;19.00;99.90;;;;;;5081522;28;20111;-72
2021/07/11 06:31:28;;;;;;;11.35;5.80;;;19.00;99.90;;;;;;5081065;28;20047;-69
2021/07/11 06:33:53;;;;;;;12.65;6.05;;;19.00;99.90;;;;;;5078557;28;20036;-72
2021/07/11 06:36:19;;;;;;;12.95;6.65;;;19.00;99.90;;;;;;5076477;28;20028;-71
2021/07/11 06:38:44;;;;;;;11.40;6.55;;;19.00;99.90;;;;;;5078316;28;20489;-70
2021/07/11 06:41:11;;;;;;;13.70;6.43;;;18.90;99.90;;;;;;5079531;28;20515;-71
2021/07/11 06:43:37;;;;;;;11.68;6.32;;;18.90;99.90;;;;;;5080675;28;21873;-71
2021/07/11 06:46:03;;;;;;;14.55;6.88;;;18.90;99.90;;;;;;5079807;28;20109;-72
2021/07/11 06:48:29;;;;;;;11.85;6.28;;;18.80;99.90;;;;;;5076912;28;20062;-72
2021/07/11 06:50:55;;;;;;;13.82;6.70;;;18.80;99.90;;;;;;5070574;28;20024;-72
2021/07/11 06:53:20;;;;;;;12.95;6.28;;;18.80;99.90;;;;;;5080776;28;20131;-72
2021/07/11 06:55:46;;;;;;;12.60;6.35;;;18.80;99.90;;;;;;5073881;28;20103;-71
2021/07/11 06:58:12;;;;;;;13.63;7.05;;;18.80;99.90;;;;;;5056188;28;20064;-72
2021/07/11 07:00:37;;;;;;;14.38;7.32;;;18.80;99.90;;;;;;5055560;28;20090;-72
2021/07/11 07:03:03;;;;;;;15.88;7.80;;;18.90;99.90;;;;;;5077263;28;20435;-71
2021/07/11 07:05:29;;;;;;;14.88;8.80;;;18.70;99.90;;;;;;5071634;28;20038;-71
2021/07/11 07:07:55;;;;;;;15.18;8.13;;;18.70;99.90;;;;;;5074153;28;20028;-72
2021/07/11 07:10:23;;;;;;;18.77;8.60;;;18.70;99.90;;;;;;5081053;28;20040;-71
2021/07/11 07:12:49;;;;;;;19.33;9.43;;;18.60;99.90;;;;;;5084241;28;20784;-71
2021/07/11 07:15:14;;;;;;;16.80;9.65;;;18.60;99.90;;;;;;5063722;28;20031;-72
2021/07/11 07:17:42;;;;;;;21.17;8.75;;;18.60;99.90;;;;;;5082569;28;20087;-71
2021/07/11 07:20:08;;;;;;;17.70;9.88;;;18.60;99.90;;;;;;5065521;28;20024;-72
2021/07/11 07:22:35;;;;;;;17.23;9.90;;;18.70;99.90;;;;;;5051942;28;20477;-71
2021/07/11 07:25:01;;;;;;;18.67;9.90;;;18.70;99.90;;;;;;5062984;28;20040;-71
2021/07/11 07:27:27;;;;;;;18.10;9.32;;;18.70;99.90;;;;;;5062276;28;20037;-72
2021/07/11 07:29:52;;;;;;;17.67;9.18;;;18.70;99.90;;;;;;5056904;28;20142;-71
2021/07/11 07:32:18;;;;;;;18.00;9.40;;;18.70;99.90;;;;;;5062126;28;20041;-71
2021/07/11 07:34:43;;;;;;;20.33;9.82;;;18.80;99.90;;;;;;5066871;28;20085;-72
2021/07/11 07:37:09;;;;;;;16.00;8.98;;;18.80;99.90;;;;;;5078127;28;20163;-71
2021/07/11 07:39:34;;;;;;;15.35;9.20;;;18.70;99.90;;;;;;5072593;28;20734;-69
2021/07/11 07:42:01;;;;;;;17.73;9.07;;;18.70;99.90;;;;;;5067243;28;20400;-73
2021/07/11 07:44:26;;;;;;;15.98;9.15;;;18.70;99.90;;;;;;5059669;28;20047;-71
2021/07/11 07:46:52;;;;;;;17.48;9.23;;;18.80;99.90;;;;;;5070301;28;20032;-70
2021/07/11 07:49:18;;;;;;;20.23;10.20;;;18.80;99.90;;;;;;5053473;28;20036;-72
2021/07/11 07:51:44;;;;;;;21.27;9.88;;;18.80;99.90;;;;;;5071940;28;20404;-70
2021/07/11 07:54:09;;;;;;;19.08;10.27;;;18.80;99.90;;;;;;5072315;28;20093;-72
2021/07/11 07:56:35;;;;;;;19.08;9.75;;;18.80;99.90;;;;;;5057224;28;20186;-72
2021/07/11 07:59:00;;;;;;;21.15;10.18;;;18.80;99.90;;;;;;5070692;28;20068;-72
2021/07/11 08:01:26;;;;;;;20.92;10.65;;;18.80;99.90;;;;;;5070162;28;20148;-69
2021/07/11 08:03:51;;;;;;;19.60;9.65;;;18.80;99.90;;;;;;5073071;28;20044;-70
2021/07/11 08:06:17;;;;;;;25.67;11.38;;;18.90;99.90;;;;;;5073073;28;20032;-71
2021/07/11 08:08:43;;;;;;;19.45;9.57;;;18.90;99.90;;;;;;5071496;28;20112;-69
2021/07/11 08:11:08;;;;;;;16.83;9.52;;;19.00;99.90;;;;;;5067497;28;20038;-72
2021/07/11 08:13:35;;;;;;;18.70;9.35;;;19.00;99.90;;;;;;5077903;28;20060;-74
2021/07/11 08:16:02;;;;;;;18.52;9.23;;;19.10;99.90;;;;;;5057559;28;20086;-72
2021/07/11 08:18:27;;;;;;;20.88;10.45;;;19.20;99.90;;;;;;5075796;28;20041;-71
2021/07/11 08:20:53;;;;;;;18.35;10.00;;;19.20;99.90;;;;;;5076249;28;20048;-70
2021/07/11 08:23:18;;;;;;;21.80;10.65;;;19.20;99.90;;;;;;5056908;28;20111;-72
2021/07/11 08:25:44;;;;;;;19.88;10.40;;;19.30;99.90;;;;;;5059200;28;20062;-72
2021/07/11 08:28:09;;;;;;;22.80;12.68;;;19.40;99.90;;;;;;5080604;28;20549;-72
2021/07/11 08:30:35;;;;;;;25.75;13.45;;;19.40;99.90;;;;;;5077681;28;20559;-71
2021/07/11 08:33:01;;;;;;;26.70;14.18;;;19.60;99.90;;;;;;5076686;28;20028;-72
2021/07/11 08:35:26;;;;;;;27.35;13.55;;;19.80;99.90;;;;;;5075091;28;20032;-71
2021/07/11 08:37:52;;;;;;;26.48;12.07;;;20.00;99.90;;;;;;5082480;28;20035;-71
2021/07/11 08:40:18;;;;;;;25.23;12.05;;;20.00;99.90;;;;;;5082936;28;20029;-71
2021/07/11 08:42:44;;;;;;;25.27;12.52;;;20.10;99.90;;;;;;5078872;28;20178;-71
2021/07/11 08:45:11;;;;;;;23.00;12.65;;;20.20;99.90;;;;;;5083940;28;20430;-71
2021/07/11 08:47:38;;;;;;;21.33;12.05;;;20.30;99.90;;;;;;5080342;28;20103;-71
2021/07/11 08:50:09;;;;;;;22.40;10.85;;;20.60;99.90;;;;;;5062938;28;20029;-71
2021/07/11 08:52:35;;;;;;;24.83;11.18;;;20.90;99.90;;;;;;5081662;28;20643;-71
2021/07/11 08:55:09;;;;;;;18.80;9.95;;;21.30;99.90;;;;;;5059455;28;21147;-72
2021/07/11 08:57:35;;;;;;;24.02;10.85;;;21.50;99.90;;;;;;5063461;28;20044;-71
2021/07/11 09:00:00;;;;;;;24.73;11.05;;;21.50;99.90;;;;;;5080370;28;20028;-71
2021/07/11 09:02:26;;;;;;;31.15;13.57;;;21.60;99.90;;;;;;5083898;28;20077;-71
2021/07/11 09:04:52;;;;;;;29.70;12.90;;;21.50;99.90;;;;;;5079134;28;20480;-72
2021/07/11 09:07:22;;;;;;;25.38;11.45;;;21.70;99.90;;;;;;5082999;28;20028;-73
2021/07/11 09:09:59;;;;;;;34.67;14.55;;;21.70;99.90;;;;;;5073989;28;20082;-71
2021/07/11 09:12:26;;;;;;;25.45;12.48;;;21.80;99.90;;;;;;5076523;28;20024;-71
2021/07/11 09:14:52;;;;;;;27.08;11.70;;;22.00;99.90;;;;;;5060747;28;20036;-71
2021/07/11 09:17:19;;;;;;;24.38;10.98;;;22.10;99.90;;;;;;5079533;28;20179;-71
2021/07/11 09:19:48;;;;;;;37.38;12.93;;;22.20;99.90;;;;;;5064679;28;20047;-71
2021/07/11 09:22:18;;;;;;;18.38;8.18;;;22.20;99.90;;;;;;5075611;28;20107;-71
2021/07/11 09:24:53;;;;;;;16.17;7.82;;;22.30;99.90;;;;;;5083326;28;20032;-71
2021/07/11 09:27:22;;;;;;;13.90;7.05;;;22.40;99.90;;;;;;5074250;28;20433;-71
2021/07/11 09:29:47;;;;;;;12.73;6.80;;;22.40;99.90;;;;;;5075231;28;20064;-72
2021/07/11 09:32:31;;;;;;;14.15;6.63;;;22.50;99.90;;;;;;5082324;28;20066;-71
2021/07/11 09:35:08;;;;;;;14.15;8.10;;;22.60;99.90;;;;;;5058049;28;20034;-72
2021/07/11 09:37:37;;;;;;;12.23;6.88;;;22.50;99.90;;;;;;5079138;28;20044;-71
2021/07/11 09:40:05;;;;;;;11.48;6.80;;;22.50;99.90;;;;;;5060681;28;20036;-72
2021/07/11 09:42:36;;;;;;;14.25;7.90;;;22.40;99.90;;;;;;5083011;28;20028;-71
2021/07/11 09:45:05;;;;;;;15.38;7.82;;;22.30;99.90;;;;;;5062130;28;20021;-71
2021/07/11 09:47:32;;;;;;;16.00;7.65;;;22.30;99.90;;;;;;5081167;28;20040;-70
2021/07/11 09:50:05;;;;;;;14.50;7.65;;;22.20;99.90;;;;;;5078876;28;20030;-70
2021/07/11 09:52:32;;;;;;;16.25;8.35;;;22.30;99.90;;;;;;5079913;28;20094;-71
2021/07/11 09:55:31;;;;;;;19.05;9.38;;;22.20;99.90;;;;;;5064339;28;20037;-71
2021/07/11 09:58:02;;;;;;;17.40;9.02;;;22.20;99.90;;;;;;5040957;28;20131;-71
2021/07/11 10:00:32;;;;;;;13.23;8.07;;;22.20;99.90;;;;;;5059892;28;20031;-71
2021/07/11 10:03:13;;;;;;;17.05;9.02;;;22.30;99.90;;;;;;5062857;28;20040;-71
2021/07/11 10:05:40;;;;;;;13.38;7.72;;;22.40;99.90;;;;;;5081021;28;20032;-71
2021/07/11 10:08:06;;;;;;;13.75;7.13;;;22.50;99.90;;;;;;5079363;28;20082;-71
2021/07/11 10:10:34;;;;;;;14.65;8.07;;;22.50;99.90;;;;;;5062641;28;20036;-71
2021/07/11 10:13:02;;;;;;;13.75;6.85;;;22.60;99.90;;;;;;5080096;28;20071;-71
2021/07/11 10:15:30;;;;;;;13.55;7.50;;;22.50;99.90;;;;;;5062299;28;20040;-71
2021/07/11 10:18:13;;;;;;;14.63;7.78;;;22.50;99.90;;;;;;5062120;28;20514;-70
2021/07/11 10:20:49;;;;;;;11.63;6.75;;;22.50;99.90;;;;;;5060127;28;20104;-73
2021/07/11 10:23:33;;;;;;;13.05;7.15;;;22.50;99.90;;;;;;5057035;28;20029;-71
2021/07/11 10:26:02;;;;;;;13.30;6.53;;;22.40;99.90;;;;;;5080794;28;20254;-71
2021/07/11 10:28:30;;;;;;;12.60;6.82;;;22.50;99.90;;;;;;5080342;28;20074;-71
2021/07/11 10:30:57;;;;;;;15.20;7.10;;;22.50;99.90;;;;;;5065559;28;20028;-71
2021/07/11 10:33:25;;;;;;;11.07;6.97;;;22.50;99.90;;;;;;5085195;28;20043;-71
2021/07/11 10:36:00;;;;;;;11.90;7.57;;;22.50;99.90;;;;;;5082871;28;20614;-71
2021/07/11 10:38:28;;;;;;;11.25;7.03;;;22.50;99.90;;;;;;5065585;28;20575;-71
2021/07/11 10:40:54;;;;;;;13.32;7.68;;;22.70;99.90;;;;;;5081240;28;20060;-71
2021/07/11 10:43:19;;;;;;;11.25;6.63;;;22.80;99.90;;;;;;5085677;28;20028;-71
2021/07/11 10:45:46;;;;;;;14.23;7.30;;;22.90;99.90;;;;;;5085014;28;20039;-72
2021/07/11 10:48:13;;;;;;;13.10;7.70;;;23.00;99.90;;;;;;5061663;28;20436;-72
2021/07/11 10:50:42;;;;;;;11.70;6.97;;;23.20;99.90;;;;;;5081260;28;20084;-72
2021/07/11 10:53:19;;;;;;;11.75;7.38;;;23.40;99.90;;;;;;5082133;28;20041;-72
2021/07/11 10:55:45;;;;;;;12.63;6.90;;;23.60;99.90;;;;;;5077881;28;20028;-75
2021/07/11 10:58:16;;;;;;;10.85;5.60;;;23.60;99.90;;;;;;5077482;28;20040;-72
2021/07/11 11:00:43;;;;;;;9.73;6.00;;;23.80;99.90;;;;;;5077777;28;20029;-72
2021/07/11 11:03:20;;;;;;;9.73;5.97;;;23.90;99.90;;;;;;5066806;28;20074;-72
2021/07/11 11:05:48;;;;;;;10.95;6.00;;;24.00;99.90;;;;;;5060762;28;20032;-71
2021/07/11 11:08:19;;;;;;;10.45;5.93;;;24.10;99.90;;;;;;5085140;28;20581;-71
2021/07/11 11:10:48;;;;;;;12.35;6.80;;;24.30;99.90;;;;;;5064664;28;20377;-71
2021/07/11 11:13:17;;;;;;;12.77;6.57;;;24.30;99.90;;;;;;5079371;28;20107;-72
2021/07/11 11:15:48;;;;;;;15.23;6.75;;;24.50;99.90;;;;;;5059774;28;20115;-72
2021/07/11 11:18:21;;;;;;;10.55;6.07;;;24.50;99.90;;;;;;5059633;28;20035;-70
2021/07/11 11:20:54;;;;;;;10.10;6.13;;;24.50;99.90;;;;;;5084908;28;20055;-70
2021/07/11 11:23:21;;;;;;;11.02;5.90;;;24.30;99.90;;;;;;5083891;28;20039;-72
2021/07/11 11:25:47;;;;;;;14.00;6.93;;;24.30;99.90;;;;;;5063669;28;20119;-72
2021/07/11 11:28:13;;;;;;;13.77;6.10;;;24.20;99.90;;;;;;5084657;28;20115;-71
2021/07/11 11:30:41;;;;;;;8.75;5.82;;;24.10;99.90;;;;;;5077263;28;20438;-71
2021/07/11 11:33:07;;;;;;;11.00;5.75;;;24.00;99.90;;;;;;5080329;28;20097;-71
2021/07/11 11:35:35;;;;;;;9.82;5.65;;;24.00;99.90;;;;;;5063593;28;20033;-71
2021/07/11 11:38:04;;;;;;;11.88;6.35;;;24.00;99.90;;;;;;5082341;28;20075;-72
2021/07/11 11:40:31;;;;;;;8.98;5.60;;;24.10;99.90;;;;;;5052776;28;20036;-71
2021/07/11 11:43:05;;;;;;;9.40;5.47;;;24.00;99.90;;;;;;5080152;28;20039;-72
2021/07/11 11:45:34;;;;;;;8.65;5.30;;;24.00;99.90;;;;;;5079992;28;20602;-71
2021/07/11 11:48:09;;;;;;;11.32;5.57;;;24.00;99.90;;;;;;5065045;28;20494;-71
2021/07/11 11:50:36;;;;;;;7.55;4.82;;;24.10;99.90;;;;;;5083421;28;20056;-71
2021/07/11 11:53:09;;;;;;;8.82;4.78;;;24.00;99.90;;;;;;5063734;28;20041;-71
2021/07/11 11:55:37;;;;;;;7.85;4.60;;;23.80;99.90;;;;;;5081495;28;20101;-72
2021/07/11 11:58:08;;;;;;;7.13;4.47;;;23.80;99.90;;;;;;5077300;28;20028;-71
2021/07/11 12:00:34;;;;;;;9.48;4.88;;;23.80;99.90;;;;;;5080085;28;20036;-71
2021/07/11 12:03:02;;;;;;;7.50;4.20;;;23.80;99.90;;;;;;5080357;28;20120;-71
2021/07/11 12:05:30;;;;;;;9.05;4.85;;;23.70;99.90;;;;;;5060324;28;20029;-72
2021/07/11 12:07:57;;;;;;;7.68;4.78;;;23.60;99.90;;;;;;5062817;28;20064;-71
2021/07/11 12:10:23;;;;;;;5.78;4.18;;;23.60;99.90;;;;;;5081144;28;20093;-71
2021/07/11 12:13:00;;;;;;;9.05;4.95;;;23.70;99.90;;;;;;5077254;28;20060;-71
2021/07/11 12:15:33;;;;;;;9.27;5.60;;;24.00;99.90;;;;;;5072738;28;20059;-71
2021/07/11 12:18:02;;;;;;;8.60;5.22;;;24.20;99.90;;;;;;5059121;28;20051;-71
2021/07/11 12:20:28;;;;;;;8.60;4.72;;;24.20;99.90;;;;;;5064778;28;20020;-69
2021/07/11 12:22:54;;;;;;;5.97;4.10;;;24.10;99.90;;;;;;5084873;28;20392;-71
2021/07/11 12:25:23;;;;;;;8.10;4.95;;;24.10;99.90;;;;;;5065378;28;20039;-71
2021/07/11 12:27:59;;;;;;;9.13;4.93;;;24.20;99.90;;;;;;5067493;28;20055;-71
2021/07/11 12:30:33;;;;;;;7.60;4.20;;;24.20;99.90;;;;;;5059945;28;20037;-71
2021/07/11 12:32:59;;;;;;;12.93;5.05;;;24.10;99.90;;;;;;5059724;28;20051;-70
2021/07/11 12:35:26;;;;;;;9.45;5.68;;;24.20;99.90;;;;;;5062822;28;20396;-70
2021/07/11 12:37:57;;;;;;;10.30;5.75;;;24.20;99.90;;;;;;5068913;28;20731;-70
2021/07/11 12:40:32;;;;;;;14.32;5.85;;;24.10;99.90;;;;;;5061543;28;20028;-72